sensor_id;sensor_type;location;lat;lon;timestamp;pressure;altitude;pressure_sealevel;temperature;humidity
2214;BME280;1113;42.018;23.986;2024-01-11T11:23:46;92992.06;;;4.25;73.13
2214;BME280;1113;42.018;23.986;2024-01-11T11:26:15;92989.84;;;4.88;70.52
2214;BME280;1113;42.018;23.986;2024-01-11T11:28:43;92983.63;;;5.53;68.89
2214;BME280;1113;42.018;23.986;2024-01-11T11:31:11;92972.34;;;5.54;67.95
2214;BME280;1113;42.018;23.986;2024-01-11T11:33:38;92973.03;;;4.71;68.61
2214;BME280;1113;42.018;23.986;2024-01-11T11:36:12;92972.78;;;4.68;71.93
2214;BME280;1113;42.018;23.986;2024-01-11T11:38:40;92963.44;;;5.02;70.86
2214;BME280;1113;42.018;23.986;2024-01-11T11:41:09;92960.28;;;5.60;68.25
2214;BME280;1113;42.018;23.986;2024-01-11T11:43:39;92946.88;;;5.73;67.34
2214;BME280;1113;42.018;23.986;2024-01-11T11:46:08;92947.78;;;5.53;69.47
2214;BME280;1113;42.018;23.986;2024-01-11T11:48:49;92937.72;;;5.28;67.58
2214;BME280;1113;42.018;23.986;2024-01-11T11:51:18;92935.91;;;3.89;71.37
2214;BME280;1113;42.018;23.986;2024-01-11T11:53:46;92937.22;;;3.66;78.09
2214;BME280;1113;42.018;23.986;2024-01-11T11:56:17;92933.00;;;4.41;74.31
2214;BME280;1113;42.018;23.986;2024-01-11T11:58:46;92929.78;;;4.80;74.31
2214;BME280;1113;42.018;23.986;2024-01-11T12:01:15;92920.16;;;5.11;73.59
2214;BME280;1113;42.018;23.986;2024-01-11T12:03:44;92921.19;;;5.10;72.25
2214;BME280;1113;42.018;23.986;2024-01-11T12:06:15;92916.91;;;5.39;67.77
2214;BME280;1113;42.018;23.986;2024-01-11T12:08:44;92920.28;;;5.64;66.96
2214;BME280;1113;42.018;23.986;2024-01-11T12:11:13;92912.81;;;5.73;69.26
2214;BME280;1113;42.018;23.986;2024-01-11T12:13:42;92914.13;;;5.99;64.56
2214;BME280;1113;42.018;23.986;2024-01-11T12:16:11;92914.25;;;5.84;65.86
2214;BME280;1113;42.018;23.986;2024-01-11T12:18:39;92904.88;;;6.03;63.77
2214;BME280;1113;42.018;23.986;2024-01-11T12:21:06;92903.56;;;6.06;65.08
2214;BME280;1113;42.018;23.986;2024-01-11T12:23:34;92900.41;;;6.14;67.23
2214;BME280;1113;42.018;23.986;2024-01-11T12:26:02;92894.00;;;6.40;67.00
2214;BME280;1113;42.018;23.986;2024-01-11T12:28:31;92898.25;;;6.69;68.54
2214;BME280;1113;42.018;23.986;2024-01-11T12:31:00;92888.00;;;6.26;66.49
2214;BME280;1113;42.018;23.986;2024-01-11T12:33:27;92882.44;;;6.61;66.33
2214;BME280;1113;42.018;23.986;2024-01-11T12:35:55;92888.41;;;6.09;65.57
2214;BME280;1113;42.018;23.986;2024-01-11T12:38:23;92885.59;;;6.35;66.13
2214;BME280;1113;42.018;23.986;2024-01-11T12:40:50;92880.53;;;6.29;64.88
2214;BME280;1113;42.018;23.986;2024-01-11T12:43:18;92873.75;;;5.86;66.94
2214;BME280;1113;42.018;23.986;2024-01-11T12:45:45;92866.03;;;5.33;73.20
2214;BME280;1113;42.018;23.986;2024-01-11T12:48:14;92860.34;;;4.58;75.82
2214;BME280;1113;42.018;23.986;2024-01-11T12:50:44;92860.94;;;5.28;73.84
2214;BME280;1113;42.018;23.986;2024-01-11T12:53:12;92856.22;;;5.69;71.97
2214;BME280;1113;42.018;23.986;2024-01-11T12:55:44;92855.09;;;6.09;70.37
2214;BME280;1113;42.018;23.986;2024-01-11T12:58:11;92853.41;;;6.23;72.35
2214;BME280;1113;42.018;23.986;2024-01-11T13:00:38;92854.00;;;5.91;74.64
2214;BME280;1113;42.018;23.986;2024-01-11T13:03:05;92849.94;;;5.85;77.21
2214;BME280;1113;42.018;23.986;2024-01-11T13:05:35;92847.72;;;5.79;77.41
2214;BME280;1113;42.018;23.986;2024-01-11T13:08:03;92846.09;;;5.88;79.76
2214;BME280;1113;42.018;23.986;2024-01-11T13:10:34;92845.13;;;4.32;82.76
2214;BME280;1113;42.018;23.986;2024-01-11T13:13:03;92839.97;;;3.68;84.07
2214;BME280;1113;42.018;23.986;2024-01-11T13:15:30;92837.72;;;3.31;93.40
2214;BME280;1113;42.018;23.986;2024-01-11T13:17:59;92836.94;;;3.40;95.66
2214;BME280;1113;42.018;23.986;2024-01-11T13:20:26;92836.16;;;3.50;100.00
2214;BME280;1113;42.018;23.986;2024-01-11T13:23:12;92836.19;;;3.40;95.12
2214;BME280;1113;42.018;23.986;2024-01-11T13:25:39;92828.19;;;3.82;99.31
2214;BME280;1113;42.018;23.986;2024-01-11T13:28:07;92835.28;;;4.00;97.07
2214;BME280;1113;42.018;23.986;2024-01-11T13:30:35;92831.97;;;3.95;99.49
2214;BME280;1113;42.018;23.986;2024-01-11T13:33:03;92827.56;;;4.10;100.00
2214;BME280;1113;42.018;23.986;2024-01-11T13:35:30;64690.84;;;-142.54;100.00
2214;BME280;1113;42.018;23.986;2024-01-11T13:37:59;64690.84;;;-142.54;100.00
2214;BME280;1113;42.018;23.986;2024-01-11T13:40:26;64690.84;;;-142.54;100.00
2214;BME280;1113;42.018;23.986;2024-01-11T13:42:54;64690.84;;;-142.54;100.00
2214;BME280;1113;42.018;23.986;2024-01-11T13:45:22;64690.84;;;-142.54;100.00
2214;BME280;1113;42.018;23.986;2024-01-11T13:47:49;64690.84;;;-142.54;100.00
2214;BME280;1113;42.018;23.986;2024-01-11T13:50:16;64690.84;;;-142.54;100.00
2214;BME280;1113;42.018;23.986;2024-01-11T13:52:44;64690.84;;;-142.54;100.00
2214;BME280;1113;42.018;23.986;2024-01-11T13:55:13;64690.84;;;-142.54;100.00
2214;BME280;1113;42.018;23.986;2024-01-11T13:57:40;64690.84;;;-142.54;100.00
2214;BME280;1113;42.018;23.986;2024-01-11T14:00:09;64690.84;;;-142.54;100.00
2214;BME280;1113;42.018;23.986;2024-01-11T14:02:37;64690.84;;;-142.54;100.00
2214;BME280;1113;42.018;23.986;2024-01-11T14:05:06;64690.84;;;-142.54;100.00
2214;BME280;1113;42.018;23.986;2024-01-11T14:07:37;64690.84;;;-142.54;100.00
2214;BME280;1113;42.018;23.986;2024-01-11T14:10:04;64690.84;;;-142.54;100.00
2214;BME280;1113;42.018;23.986;2024-01-11T14:12:35;64690.84;;;-142.54;100.00
2214;BME280;1113;42.018;23.986;2024-01-11T14:15:04;64690.84;;;-142.54;100.00
2214;BME280;1113;42.018;23.986;2024-01-11T14:17:32;64690.84;;;-142.54;100.00
2214;BME280;1113;42.018;23.986;2024-01-11T14:19:59;64690.84;;;-142.54;100.00
2214;BME280;1113;42.018;23.986;2024-01-11T14:22:27;64690.84;;;-142.54;100.00
2214;BME280;1113;42.018;23.986;2024-01-11T14:24:54;64690.84;;;-142.54;100.00
2214;BME280;1113;42.018;23.986;2024-01-11T14:27:22;64690.84;;;-142.54;100.00
2214;BME280;1113;42.018;23.986;2024-01-11T14:29:52;64690.84;;;-142.54;100.00
2214;BME280;1113;42.018;23.986;2024-01-11T14:32:19;64690.84;;;-142.54;100.00
2214;BME280;1113;42.018;23.986;2024-01-11T14:34:46;64690.84;;;-142.54;100.00
2214;BME280;1113;42.018;23.986;2024-01-11T14:37:13;64690.84;;;-142.54;100.00
2214;BME280;1113;42.018;23.986;2024-01-11T14:39:40;64690.84;;;-142.54;100.00
2214;BME280;1113;42.018;23.986;2024-01-11T14:42:08;64690.84;;;-142.54;100.00
2214;BME280;1113;42.018;23.986;2024-01-11T14:44:35;64690.84;;;-142.54;100.00
2214;BME280;1113;42.018;23.986;2024-01-11T14:47:04;64690.84;;;-142.54;100.00
2214;BME280;1113;42.018;23.986;2024-01-11T14:49:32;64690.84;;;-142.54;100.00
2214;BME280;1113;42.018;23.986;2024-01-11T14:51:59;64690.84;;;-142.54;100.00
2214;BME280;1113;42.018;23.986;2024-01-11T14:54:26;64690.84;;;-142.54;100.00
2214;BME280;1113;42.018;23.986;2024-01-11T14:56:54;64690.84;;;-142.54;100.00
2214;BME280;1113;42.018;23.986;2024-01-11T14:59:21;64690.84;;;-142.54;100.00
2214;BME280;1113;42.018;23.986;2024-01-11T15:01:48;64690.84;;;-142.54;100.00
2214;BME280;1113;42.018;23.986;2024-01-11T15:04:17;64690.84;;;-142.54;100.00
2214;BME280;1113;42.018;23.986;2024-01-11T15:06:44;64690.84;;;-142.54;100.00
2214;BME280;1113;42.018;23.986;2024-01-11T15:09:11;64690.84;;;-142.54;100.00
2214;BME280;1113;42.018;23.986;2024-01-11T15:11:38;64690.84;;;-142.54;100.00
2214;BME280;1113;42.018;23.986;2024-01-11T15:14:06;64690.84;;;-142.54;100.00
2214;BME280;1113;42.018;23.986;2024-01-11T15:16:34;64690.84;;;-142.54;100.00
2214;BME280;1113;42.018;23.986;2024-01-11T15:19:02;64690.84;;;-142.54;100.00
2214;BME280;1113;42.018;23.986;2024-01-11T15:21:30;64690.84;;;-142.54;100.00
2214;BME280;1113;42.018;23.986;2024-01-11T15:23:58;64690.84;;;-142.54;100.00
2214;BME280;1113;42.018;23.986;2024-01-11T15:26:26;64690.84;;;-142.54;100.00
2214;BME280;1113;42.018;23.986;2024-01-11T15:28:54;64690.84;;;-142.54;100.00
2214;BME280;1113;42.018;23.986;2024-01-11T15:31:21;64690.84;;;-142.54;100.00
2214;BME280;1113;42.018;23.986;2024-01-11T15:33:48;64690.84;;;-142.54;100.00
2214;BME280;1113;42.018;23.986;2024-01-11T15:36:16;64690.84;;;-142.54;100.00
2214;BME280;1113;42.018;23.986;2024-01-11T15:38:44;64690.84;;;-142.54;100.00
2214;BME280;1113;42.018;23.986;2024-01-11T15:41:12;64690.84;;;-142.54;100.00
2214;BME280;1113;42.018;23.986;2024-01-11T15:43:39;64690.84;;;-142.54;100.00
2214;BME280;1113;42.018;23.986;2024-01-11T15:46:06;64690.84;;;-142.54;100.00
2214;BME280;1113;42.018;23.986;2024-01-11T15:48:33;64690.84;;;-142.54;100.00
2214;BME280;1113;42.018;23.986;2024-01-11T15:51:01;64690.84;;;-142.54;100.00
2214;BME280;1113;42.018;23.986;2024-01-11T15:53:28;64690.84;;;-142.54;100.00
2214;BME280;1113;42.018;23.986;2024-01-11T15:55:56;64690.84;;;-142.54;100.00
2214;BME280;1113;42.018;23.986;2024-01-11T15:58:24;64690.84;;;-142.54;100.00
2214;BME280;1113;42.018;23.986;2024-01-11T16:00:51;64690.84;;;-142.54;100.00
2214;BME280;1113;42.018;23.986;2024-01-11T16:03:18;64690.84;;;-142.54;100.00
2214;BME280;1113;42.018;23.986;2024-01-11T16:05:45;64690.84;;;-142.54;100.00
2214;BME280;1113;42.018;23.986;2024-01-11T16:08:12;64690.84;;;-142.54;100.00
2214;BME280;1113;42.018;23.986;2024-01-11T16:10:39;64690.84;;;-142.54;100.00
2214;BME280;1113;42.018;23.986;2024-01-11T16:13:08;64690.84;;;-142.54;100.00
2214;BME280;1113;42.018;23.986;2024-01-11T16:15:35;64690.84;;;-142.54;100.00
2214;BME280;1113;42.018;23.986;2024-01-11T16:18:03;64690.84;;;-142.54;100.00
2214;BME280;1113;42.018;23.986;2024-01-11T16:20:30;64690.84;;;-142.54;100.00
2214;BME280;1113;42.018;23.986;2024-01-11T16:22:57;64690.84;;;-142.54;100.00
2214;BME280;1113;42.018;23.986;2024-01-11T16:25:24;64690.84;;;-142.54;100.00
2214;BME280;1113;42.018;23.986;2024-01-11T16:27:51;64690.84;;;-142.54;100.00
2214;BME280;1113;42.018;23.986;2024-01-11T16:30:20;64690.84;;;-142.54;100.00
2214;BME280;1113;42.018;23.986;2024-01-11T16:32:47;64690.84;;;-142.54;100.00
2214;BME280;1113;42.018;23.986;2024-01-11T16:35:14;64690.84;;;-142.54;100.00
2214;BME280;1113;42.018;23.986;2024-01-11T16:37:41;64690.84;;;-142.54;100.00
2214;BME280;1113;42.018;23.986;2024-01-11T16:40:12;64690.84;;;-142.54;100.00
2214;BME280;1113;42.018;23.986;2024-01-11T16:42:39;64690.84;;;-142.54;100.00
2214;BME280;1113;42.018;23.986;2024-01-11T16:45:07;64690.84;;;-142.54;100.00
2214;BME280;1113;42.018;23.986;2024-01-11T16:47:37;64690.84;;;-142.54;100.00
2214;BME280;1113;42.018;23.986;2024-01-11T16:50:05;64690.84;;;-142.54;100.00
2214;BME280;1113;42.018;23.986;2024-01-11T16:52:34;64690.84;;;-142.54;100.00
2214;BME280;1113;42.018;23.986;2024-01-11T16:57:36;64690.84;;;-142.54;100.00
2214;BME280;1113;42.018;23.986;2024-01-11T17:00:04;64690.84;;;-142.54;100.00
2214;BME280;1113;42.018;23.986;2024-01-11T17:02:32;64690.84;;;-142.54;100.00
2214;BME280;1113;42.018;23.986;2024-01-11T17:05:02;64690.84;;;-142.54;100.00
2214;BME280;1113;42.018;23.986;2024-01-11T17:07:29;64690.84;;;-142.54;100.00
2214;BME280;1113;42.018;23.986;2024-01-11T17:09:56;64690.84;;;-142.54;100.00
2214;BME280;1113;42.018;23.986;2024-01-11T17:12:23;64690.84;;;-142.54;100.00
2214;BME280;1113;42.018;23.986;2024-01-11T17:14:50;64690.84;;;-142.54;100.00
2214;BME280;1113;42.018;23.986;2024-01-11T17:17:17;64690.84;;;-142.54;100.00
2214;BME280;1113;42.018;23.986;2024-01-11T17:19:44;64690.84;;;-142.54;100.00
2214;BME280;1113;42.018;23.986;2024-01-11T17:22:13;64690.84;;;-142.54;100.00
2214;BME280;1113;42.018;23.986;2024-01-11T17:24:41;64690.84;;;-142.54;100.00
2214;BME280;1113;42.018;23.986;2024-01-11T17:27:08;64690.84;;;-142.54;100.00
2214;BME280;1113;42.018;23.986;2024-01-11T17:29:40;64690.84;;;-142.54;100.00
2214;BME280;1113;42.018;23.986;2024-01-11T17:32:07;64690.84;;;-142.54;100.00
2214;BME280;1113;42.018;23.986;2024-01-11T17:34:34;64690.84;;;-142.54;100.00
2214;BME280;1113;42.018;23.986;2024-01-11T17:37:02;64690.84;;;-142.54;100.00
2214;BME280;1113;42.018;23.986;2024-01-11T17:39:30;64690.84;;;-142.54;100.00
2214;BME280;1113;42.018;23.986;2024-01-11T17:41:57;64690.84;;;-142.54;100.00
2214;BME280;1113;42.018;23.986;2024-01-11T17:44:26;64690.84;;;-142.54;100.00
2214;BME280;1113;42.018;23.986;2024-01-11T17:46:53;64690.84;;;-142.54;100.00
2214;BME280;1113;42.018;23.986;2024-01-11T17:49:20;64690.84;;;-142.54;100.00
2214;BME280;1113;42.018;23.986;2024-01-11T17:51:47;64690.84;;;-142.54;100.00
2214;BME280;1113;42.018;23.986;2024-01-11T17:54:21;64690.84;;;-142.54;100.00
2214;BME280;1113;42.018;23.986;2024-01-11T17:56:50;64690.84;;;-142.54;100.00
2214;BME280;1113;42.018;23.986;2024-01-11T17:59:17;64690.84;;;-142.54;100.00
2214;BME280;1113;42.018;23.986;2024-01-11T18:01:44;64690.84;;;-142.54;100.00
2214;BME280;1113;42.018;23.986;2024-01-11T18:04:11;64690.84;;;-142.54;100.00
2214;BME280;1113;42.018;23.986;2024-01-11T18:06:39;64690.84;;;-142.54;100.00
2214;BME280;1113;42.018;23.986;2024-01-11T18:09:06;64690.84;;;-142.54;100.00
2214;BME280;1113;42.018;23.986;2024-01-11T18:11:33;64690.84;;;-142.54;100.00
2214;BME280;1113;42.018;23.986;2024-01-11T18:14:02;64690.84;;;-142.54;100.00
2214;BME280;1113;42.018;23.986;2024-01-11T18:16:29;64690.84;;;-142.54;100.00
2214;BME280;1113;42.018;23.986;2024-01-11T18:18:56;64690.84;;;-142.54;100.00
2214;BME280;1113;42.018;23.986;2024-01-11T18:24:45;64690.84;;;-142.54;100.00
2214;BME280;1113;42.018;23.986;2024-01-11T18:27:13;64690.84;;;-142.54;100.00
2214;BME280;1113;42.018;23.986;2024-01-11T18:29:41;64690.84;;;-142.54;100.00
2214;BME280;1113;42.018;23.986;2024-01-11T18:32:08;64690.84;;;-142.54;100.00
2214;BME280;1113;42.018;23.986;2024-01-11T18:34:36;64690.84;;;-142.54;100.00
2214;BME280;1113;42.018;23.986;2024-01-11T18:37:03;64690.84;;;-142.54;100.00
2214;BME280;1113;42.018;23.986;2024-01-11T18:39:30;64690.84;;;-142.54;100.00
2214;BME280;1113;42.018;23.986;2024-01-11T18:41:58;64690.84;;;-142.54;100.00
2214;BME280;1113;42.018;23.986;2024-01-11T18:44:26;64690.84;;;-142.54;100.00
2214;BME280;1113;42.018;23.986;2024-01-11T18:46:54;64690.84;;;-142.54;100.00
2214;BME280;1113;42.018;23.986;2024-01-11T18:49:22;64690.84;;;-142.54;100.00
2214;BME280;1113;42.018;23.986;2024-01-11T18:51:49;64690.84;;;-142.54;100.00
2214;BME280;1113;42.018;23.986;2024-01-11T18:54:16;64690.84;;;-142.54;100.00
2214;BME280;1113;42.018;23.986;2024-01-11T18:56:44;64690.84;;;-142.54;100.00
2214;BME280;1113;42.018;23.986;2024-01-11T18:59:11;64690.84;;;-142.54;100.00
2214;BME280;1113;42.018;23.986;2024-01-11T19:01:39;64690.84;;;-142.54;100.00
2214;BME280;1113;42.018;23.986;2024-01-11T19:04:07;64690.84;;;-142.54;100.00
2214;BME280;1113;42.018;23.986;2024-01-11T19:06:35;64690.84;;;-142.54;100.00
2214;BME280;1113;42.018;23.986;2024-01-11T19:09:02;64690.84;;;-142.54;100.00
2214;BME280;1113;42.018;23.986;2024-01-11T19:11:29;64690.84;;;-142.54;100.00
2214;BME280;1113;42.018;23.986;2024-01-11T19:13:57;64690.84;;;-142.54;100.00
2214;BME280;1113;42.018;23.986;2024-01-11T19:16:24;64690.84;;;-142.54;100.00
2214;BME280;1113;42.018;23.986;2024-01-11T19:18:52;64690.84;;;-142.54;100.00
2214;BME280;1113;42.018;23.986;2024-01-11T19:21:22;64690.84;;;-142.54;100.00
2214;BME280;1113;42.018;23.986;2024-01-11T19:23:49;64690.84;;;-142.54;100.00
2214;BME280;1113;42.018;23.986;2024-01-11T19:26:16;64690.84;;;-142.54;100.00
2214;BME280;1113;42.018;23.986;2024-01-11T19:28:44;64690.84;;;-142.54;100.00
2214;BME280;1113;42.018;23.986;2024-01-11T19:31:11;64690.84;;;-142.54;100.00
2214;BME280;1113;42.018;23.986;2024-01-11T19:33:38;64690.84;;;-142.54;100.00
2214;BME280;1113;42.018;23.986;2024-01-11T19:36:06;64690.84;;;-142.54;100.00
2214;BME280;1113;42.018;23.986;2024-01-11T19:38:35;64690.84;;;-142.54;100.00
2214;BME280;1113;42.018;23.986;2024-01-11T19:41:04;64690.84;;;-142.54;100.00
2214;BME280;1113;42.018;23.986;2024-01-11T19:43:32;64690.84;;;-142.54;100.00
2214;BME280;1113;42.018;23.986;2024-01-11T19:46:00;64690.84;;;-142.54;100.00
2214;BME280;1113;42.018;23.986;2024-01-11T19:48:28;64690.84;;;-142.54;100.00
2214;BME280;1113;42.018;23.986;2024-01-11T19:50:55;64690.84;;;-142.54;100.00
2214;BME280;1113;42.018;23.986;2024-01-11T19:53:22;64690.84;;;-142.54;100.00
2214;BME280;1113;42.018;23.986;2024-01-11T19:55:51;64690.84;;;-142.54;100.00
2214;BME280;1113;42.018;23.986;2024-01-11T19:58:18;64690.84;;;-142.54;100.00
2214;BME280;1113;42.018;23.986;2024-01-11T20:00:45;64690.84;;;-142.54;100.00
2214;BME280;1113;42.018;23.986;2024-01-11T20:03:12;64690.84;;;-142.54;100.00
2214;BME280;1113;42.018;23.986;2024-01-11T20:05:40;64690.84;;;-142.54;100.00
2214;BME280;1113;42.018;23.986;2024-01-11T20:08:07;64690.84;;;-142.54;100.00
2214;BME280;1113;42.018;23.986;2024-01-11T20:10:34;64690.84;;;-142.54;100.00
2214;BME280;1113;42.018;23.986;2024-01-11T20:13:03;64690.84;;;-142.54;100.00
2214;BME280;1113;42.018;23.986;2024-01-11T20:15:31;64690.84;;;-142.54;100.00
2214;BME280;1113;42.018;23.986;2024-01-11T20:17:58;64690.84;;;-142.54;100.00
2214;BME280;1113;42.018;23.986;2024-01-11T20:20:25;64690.84;;;-142.54;100.00
2214;BME280;1113;42.018;23.986;2024-01-11T20:22:53;64690.84;;;-142.54;100.00
2214;BME280;1113;42.018;23.986;2024-01-11T20:25:20;64690.84;;;-142.54;100.00
2214;BME280;1113;42.018;23.986;2024-01-11T20:27:48;64690.84;;;-142.54;100.00
2214;BME280;1113;42.018;23.986;2024-01-11T20:30:16;64690.84;;;-142.54;100.00
2214;BME280;1113;42.018;23.986;2024-01-11T20:32:44;64690.84;;;-142.54;100.00
2214;BME280;1113;42.018;23.986;2024-01-11T20:35:11;64690.84;;;-142.54;100.00
2214;BME280;1113;42.018;23.986;2024-01-11T20:37:39;64690.84;;;-142.54;100.00
2214;BME280;1113;42.018;23.986;2024-01-11T20:40:07;64690.84;;;-142.54;100.00
2214;BME280;1113;42.018;23.986;2024-01-11T20:42:35;64690.84;;;-142.54;100.00
2214;BME280;1113;42.018;23.986;2024-01-11T20:45:02;64690.84;;;-142.54;100.00
2214;BME280;1113;42.018;23.986;2024-01-11T20:47:31;64690.84;;;-142.54;100.00
2214;BME280;1113;42.018;23.986;2024-01-11T20:49:58;64690.84;;;-142.54;100.00
2214;BME280;1113;42.018;23.986;2024-01-11T20:52:26;64690.84;;;-142.54;100.00
2214;BME280;1113;42.018;23.986;2024-01-11T20:54:54;64690.84;;;-142.54;100.00
2214;BME280;1113;42.018;23.986;2024-01-11T20:57:21;64690.84;;;-142.54;100.00
2214;BME280;1113;42.018;23.986;2024-01-11T20:59:48;64690.84;;;-142.54;100.00
2214;BME280;1113;42.018;23.986;2024-01-11T21:02:15;64690.84;;;-142.54;100.00
2214;BME280;1113;42.018;23.986;2024-01-11T21:04:44;64690.84;;;-142.54;100.00
2214;BME280;1113;42.018;23.986;2024-01-11T21:07:11;64690.84;;;-142.54;100.00
2214;BME280;1113;42.018;23.986;2024-01-11T21:09:38;64690.84;;;-142.54;100.00
2214;BME280;1113;42.018;23.986;2024-01-11T21:12:06;64690.84;;;-142.54;100.00
2214;BME280;1113;42.018;23.986;2024-01-11T21:14:33;64690.84;;;-142.54;100.00
2214;BME280;1113;42.018;23.986;2024-01-11T21:17:00;64690.84;;;-142.54;100.00
2214;BME280;1113;42.018;23.986;2024-01-11T21:19:27;64690.84;;;-142.54;100.00
2214;BME280;1113;42.018;23.986;2024-01-11T21:21:56;64690.84;;;-142.54;100.00
2214;BME280;1113;42.018;23.986;2024-01-11T21:24:23;64690.84;;;-142.54;100.00
2214;BME280;1113;42.018;23.986;2024-01-11T21:26:50;64690.84;;;-142.54;100.00
2214;BME280;1113;42.018;23.986;2024-01-11T21:29:17;64690.84;;;-142.54;100.00
2214;BME280;1113;42.018;23.986;2024-01-11T21:31:45;64690.84;;;-142.54;100.00
2214;BME280;1113;42.018;23.986;2024-01-11T21:34:12;64690.84;;;-142.54;100.00
2214;BME280;1113;42.018;23.986;2024-01-11T21:36:39;64690.84;;;-142.54;100.00
2214;BME280;1113;42.018;23.986;2024-01-11T21:39:08;64690.84;;;-142.54;100.00
2214;BME280;1113;42.018;23.986;2024-01-11T21:41:35;64690.84;;;-142.54;100.00
2214;BME280;1113;42.018;23.986;2024-01-11T21:44:03;64690.84;;;-142.54;100.00
2214;BME280;1113;42.018;23.986;2024-01-11T21:46:30;64690.84;;;-142.54;100.00
2214;BME280;1113;42.018;23.986;2024-01-11T21:48:57;64690.84;;;-142.54;100.00
2214;BME280;1113;42.018;23.986;2024-01-11T21:51:26;64690.84;;;-142.54;100.00
2214;BME280;1113;42.018;23.986;2024-01-11T21:53:53;64690.84;;;-142.54;100.00
2214;BME280;1113;42.018;23.986;2024-01-11T21:56:25;64690.84;;;-142.54;100.00
2214;BME280;1113;42.018;23.986;2024-01-11T21:58:53;64690.84;;;-142.54;100.00
2214;BME280;1113;42.018;23.986;2024-01-11T22:01:20;64690.84;;;-142.54;100.00
2214;BME280;1113;42.018;23.986;2024-01-11T22:03:47;64690.84;;;-142.54;100.00
2214;BME280;1113;42.018;23.986;2024-01-11T22:06:14;64690.84;;;-142.54;100.00
2214;BME280;1113;42.018;23.986;2024-01-11T22:08:41;64690.84;;;-142.54;100.00
2214;BME280;1113;42.018;23.986;2024-01-11T22:11:08;64690.84;;;-142.54;100.00
2214;BME280;1113;42.018;23.986;2024-01-11T22:13:37;64690.84;;;-142.54;100.00
2214;BME280;1113;42.018;23.986;2024-01-11T22:16:05;64690.84;;;-142.54;100.00
2214;BME280;1113;42.018;23.986;2024-01-11T22:18:33;64690.84;;;-142.54;100.00
2214;BME280;1113;42.018;23.986;2024-01-11T22:21:00;64690.84;;;-142.54;100.00
2214;BME280;1113;42.018;23.986;2024-01-11T22:23:28;64690.84;;;-142.54;100.00
2214;BME280;1113;42.018;23.986;2024-01-11T22:25:55;64690.84;;;-142.54;100.00
2214;BME280;1113;42.018;23.986;2024-01-11T22:28:23;64690.84;;;-142.54;100.00
2214;BME280;1113;42.018;23.986;2024-01-11T22:30:51;64690.84;;;-142.54;100.00
2214;BME280;1113;42.018;23.986;2024-01-11T22:33:18;64690.84;;;-142.54;100.00
2214;BME280;1113;42.018;23.986;2024-01-11T22:35:46;64690.84;;;-142.54;100.00
2214;BME280;1113;42.018;23.986;2024-01-11T22:38:13;64690.84;;;-142.54;100.00
2214;BME280;1113;42.018;23.986;2024-01-11T22:40:40;64690.84;;;-142.54;100.00
2214;BME280;1113;42.018;23.986;2024-01-11T22:43:08;64690.84;;;-142.54;100.00
2214;BME280;1113;42.018;23.986;2024-01-11T22:45:35;64690.84;;;-142.54;100.00
2214;BME280;1113;42.018;23.986;2024-01-11T22:48:04;64690.84;;;-142.54;100.00
2214;BME280;1113;42.018;23.986;2024-01-11T22:50:31;64690.84;;;-142.54;100.00
2214;BME280;1113;42.018;23.986;2024-01-11T22:52:58;64690.84;;;-142.54;100.00
2214;BME280;1113;42.018;23.986;2024-01-11T22:55:26;64690.84;;;-142.54;100.00
2214;BME280;1113;42.018;23.986;2024-01-11T22:57:53;64690.84;;;-142.54;100.00
2214;BME280;1113;42.018;23.986;2024-01-11T23:00:20;64690.84;;;-142.54;100.00
2214;BME280;1113;42.018;23.986;2024-01-11T23:02:48;64690.84;;;-142.54;100.00
2214;BME280;1113;42.018;23.986;2024-01-11T23:05:17;64690.84;;;-142.54;100.00
2214;BME280;1113;42.018;23.986;2024-01-11T23:07:46;64690.84;;;-142.54;100.00
2214;BME280;1113;42.018;23.986;2024-01-11T23:10:13;64690.84;;;-142.54;100.00
2214;BME280;1113;42.018;23.986;2024-01-11T23:12:42;64690.84;;;-142.54;100.00
2214;BME280;1113;42.018;23.986;2024-01-11T23:15:10;64690.84;;;-142.54;100.00
2214;BME280;1113;42.018;23.986;2024-01-11T23:17:37;64690.84;;;-142.54;100.00
2214;BME280;1113;42.018;23.986;2024-01-11T23:20:05;64690.84;;;-142.54;100.00
2214;BME280;1113;42.018;23.986;2024-01-11T23:22:35;64690.84;;;-142.54;100.00
2214;BME280;1113;42.018;23.986;2024-01-11T23:25:03;64690.84;;;-142.54;100.00
2214;BME280;1113;42.018;23.986;2024-01-11T23:27:30;64690.84;;;-142.54;100.00
2214;BME280;1113;42.018;23.986;2024-01-11T23:29:57;64690.84;;;-142.54;100.00
2214;BME280;1113;42.018;23.986;2024-01-11T23:32:24;64690.84;;;-142.54;100.00
2214;BME280;1113;42.018;23.986;2024-01-11T23:34:51;64690.84;;;-142.54;100.00
2214;BME280;1113;42.018;23.986;2024-01-11T23:37:18;64690.84;;;-142.54;100.00
2214;BME280;1113;42.018;23.986;2024-01-11T23:39:47;64690.84;;;-142.54;100.00
2214;BME280;1113;42.018;23.986;2024-01-11T23:42:14;64690.84;;;-142.54;100.00
2214;BME280;1113;42.018;23.986;2024-01-11T23:44:41;64690.84;;;-142.54;100.00
2214;BME280;1113;42.018;23.986;2024-01-11T23:47:08;64690.84;;;-142.54;100.00
2214;BME280;1113;42.018;23.986;2024-01-11T23:49:35;64690.84;;;-142.54;100.00
2214;BME280;1113;42.018;23.986;2024-01-11T23:52:03;64690.84;;;-142.54;100.00
2214;BME280;1113;42.018;23.986;2024-01-11T23:54:30;64690.84;;;-142.54;100.00
2214;BME280;1113;42.018;23.986;2024-01-11T23:56:58;64690.84;;;-142.54;100.00
2214;BME280;1113;42.018;23.986;2024-01-11T23:59:25;64690.84;;;-142.54;100.00
